KFST/FST METAR and TAF weather

Enter ICAO airport designator
Station Type Date Time Source
KFST METAR 2021/04/17 02:53 UTC NOAA

KFST 170253Z AUTO 07012KT 10SM OVC025 13/08 A3002 RMK AO2 SLP135 T01280078 53035


Station Type Date Time Source
KFST Decoded METAR 2021/04/17 02:53 UTC NOAA

FORT STOCKTON PECOS CO AIRPORT , TX, United States (KFST) 30-55N 102-55W 918M
Apr 16, 2021 - 10:53 PM EDT / 2021.04.17 0253 UTC
Wind: from the ENE (070 degrees) at 14 MPH (12 KT):0
Visibility: 10 mile(s):0
Sky conditions: overcast
Temperature: 55.0 F (12.8 C)
Dew Point: 46.0 F (7.8 C)
Relative Humidity: 71%
Pressure (altimeter): 30.02 in. Hg (1016 hPa)
Pressure tendency: 0.10 inches (3.5 hPa) higher than three hours ago
ob: KFST 170253Z AUTO 07012KT 10SM OVC025 13/08 A3002 RMK AO2 SLP135 T01280078 53035
cycle: 3

Station Type Date Time Source
KFST TAF 2021/04/17 03:12 UTC NOAA

TAF
AMD KFST 170309Z 1703/1724 05012KT P6SM OVC025
FM170400 06014G20KT P6SM OVC025
FM171300 02012KT P6SM OVC030

Example: see airport list